Time;durP1;ratioP1;P1;durP2;ratioP2;P2;SDS_P1;SDS_P2;PMS_P1;PMS_P2;Temp;Humidity;BMP_temperature;BMP_pressure;BME280_temperature;BME280_humidity;BME280_pressure;Samples;Min_cycle;Max_cycle;Signal;HPM_P1;HPM_P2
2022/06/03 00:00:22;;;;;;;2.27;2.07;;;;;;;;;;4994418;28;20245;-55
2022/06/03 00:03:06;;;;;;;2.30;2.10;;;;;;;;;;4992731;28;20248;-55
2022/06/03 00:05:32;;;;;;;2.33;2.03;;;;;;;;;;4988598;28;20233;-55
2022/06/03 00:08:15;;;;;;;2.13;2.03;;;;;;;;;;4991174;28;20198;-55
2022/06/03 00:10:47;;;;;;;2.20;2.00;;;;;;;;;;4998365;28;20194;-55
2022/06/03 00:13:13;;;;;;;2.47;2.27;;;;;;;;;;4991601;28;20218;-55
2022/06/03 00:15:42;;;;;;;1.97;1.87;;;;;;;;;;4996427;28;20193;-55
2022/06/03 00:18:16;;;;;;;2.30;2.10;;;;;;;;;;4995459;28;20194;-55
2022/06/03 00:20:45;;;;;;;5.07;2.20;;;;;;;;;;4998502;28;20194;-55
2022/06/03 00:23:25;;;;;;;2.67;2.00;;;;;;;;;;4986534;28;20194;-55
2022/06/03 00:25:52;;;;;;;2.30;2.10;;;;;;;;;;4990758;28;21811;-55
2022/06/03 00:28:25;;;;;;;2.23;2.07;;;;;;;;;;4989188;28;20221;-55
2022/06/03 00:30:54;;;;;;;2.23;2.03;;;;;;;;;;4999571;28;20186;-55
2022/06/03 00:33:25;;;;;;;2.30;2.10;;;;;;;;;;4989836;28;20220;-55
2022/06/03 00:35:57;;;;;;;1.93;1.80;;;;;;;;;;4993901;28;20266;-55
2022/06/03 00:38:52;;;;;;;2.73;2.40;;;;;;;;;;4993846;28;20217;-55
2022/06/03 00:41:37;;;;;;;2.37;2.17;;;;;;;;;;4981373;28;20670;-55
2022/06/03 00:44:03;;;;;;;2.00;1.90;;;;;;;;;;4989825;28;20224;-55
2022/06/03 00:46:48;;;;;;;2.47;2.20;;;;;;;;;;4987155;28;20300;-55
2022/06/03 00:49:22;;;;;;;2.87;2.67;;;;;;;;;;4994767;28;20651;-55
2022/06/03 00:51:57;;;;;;;2.23;2.00;;;;;;;;;;4995854;28;20197;-55
2022/06/03 00:54:26;;;;;;;2.57;2.37;;;;;;;;;;4991836;28;20220;-55
2022/06/03 00:57:11;;;;;;;2.50;2.30;;;;;;;;;;4992841;28;20182;-56
2022/06/03 00:59:55;;;;;;;2.13;2.03;;;;;;;;;;4996210;28;20190;-55
2022/06/03 01:02:27;;;;;;;2.30;2.10;;;;;;;;;;4993984;28;20727;-55
2022/06/03 01:05:03;;;;;;;2.30;2.10;;;;;;;;;;4992590;28;20510;-55
2022/06/03 01:07:51;;;;;;;2.30;2.10;;;;;;;;;;4994447;28;21123;-55
2022/06/03 01:10:32;;;;;;;2.50;2.40;;;;;;;;;;4991371;28;20186;-55
2022/06/03 01:13:01;;;;;;;2.80;2.60;;;;;;;;;;4989987;28;20578;-55
2022/06/03 01:15:30;;;;;;;2.60;2.30;;;;;;;;;;4991660;28;20523;-55
2022/06/03 01:18:06;;;;;;;2.67;2.47;;;;;;;;;;5001526;28;20182;-55
2022/06/03 01:20:51;;;;;;;2.83;2.30;;;;;;;;;;4997894;28;20745;-55
2022/06/03 01:23:31;;;;;;;2.87;2.43;;;;;;;;;;4995708;28;20198;-55
2022/06/03 01:26:16;;;;;;;2.83;2.63;;;;;;;;;;4991480;28;20679;-55
2022/06/03 01:28:41;;;;;;;2.83;2.63;;;;;;;;;;4994709;28;20217;-55
2022/06/03 01:31:26;;;;;;;3.43;2.50;;;;;;;;;;4990383;28;20202;-55
2022/06/03 01:33:58;;;;;;;3.00;2.80;;;;;;;;;;4992091;28;20205;-55
2022/06/03 01:36:30;;;;;;;2.80;2.60;;;;;;;;;;4987163;28;20204;-55
2022/06/03 01:39:06;;;;;;;2.93;2.63;;;;;;;;;;4988302;28;20824;-55
2022/06/03 01:41:37;;;;;;;4.93;2.37;;;;;;;;;;4987891;28;20189;-55
2022/06/03 01:44:22;;;;;;;2.20;2.10;;;;;;;;;;4990150;28;20214;-55
2022/06/03 01:47:07;;;;;;;2.70;2.47;;;;;;;;;;4988648;28;20273;-55
2022/06/03 01:49:36;;;;;;;2.60;2.40;;;;;;;;;;4989065;28;20196;-55
2022/06/03 01:52:06;;;;;;;2.60;2.40;;;;;;;;;;4988105;28;20521;-55
2022/06/03 01:54:38;;;;;;;2.57;2.37;;;;;;;;;;4999309;28;20591;-55
2022/06/03 01:57:13;;;;;;;2.40;2.20;;;;;;;;;;4994606;28;20190;-54
2022/06/03 01:59:45;;;;;;;3.10;2.60;;;;;;;;;;4994761;28;20197;-55
2022/06/03 02:02:24;;;;;;;2.90;2.70;;;;;;;;;;4989078;28;20552;-55
2022/06/03 02:05:07;;;;;;;3.30;2.70;;;;;;;;;;4994776;28;20239;-55
2022/06/03 02:07:36;;;;;;;3.00;2.60;;;;;;;;;;4991581;28;20423;-55
2022/06/03 02:10:21;;;;;;;2.90;2.60;;;;;;;;;;4987019;28;20189;-55
2022/06/03 02:12:47;;;;;;;3.20;2.67;;;;;;;;;;4995485;28;20232;-55
2022/06/03 02:15:22;;;;;;;2.90;2.70;;;;;;;;;;4991968;28;20555;-55
2022/06/03 02:18:07;;;;;;;2.97;2.50;;;;;;;;;;4993361;28;20189;-55
2022/06/03 02:20:36;;;;;;;4.03;2.73;;;;;;;;;;4991536;28;20710;-55
2022/06/03 02:23:11;;;;;;;3.27;2.50;;;;;;;;;;4994068;28;20196;-55
2022/06/03 02:25:50;;;;;;;2.80;2.60;;;;;;;;;;4981813;28;20208;-55
2022/06/03 02:28:24;;;;;;;2.87;2.67;;;;;;;;;;4995812;28;20213;-56
2022/06/03 02:31:09;;;;;;;2.73;2.53;;;;;;;;;;4992016;28;20221;-55
2022/06/03 02:33:35;;;;;;;2.63;2.40;;;;;;;;;;4985310;28;20205;-55
2022/06/03 02:36:04;;;;;;;2.77;2.57;;;;;;;;;;4985807;28;20320;-55
2022/06/03 02:38:30;;;;;;;3.00;2.80;;;;;;;;;;4992335;28;20181;-55
2022/06/03 02:41:15;;;;;;;2.77;2.57;;;;;;;;;;4996573;28;20197;-55
2022/06/03 02:43:48;;;;;;;3.10;2.83;;;;;;;;;;4989844;28;20233;-55
2022/06/03 02:46:17;;;;;;;3.00;2.70;;;;;;;;;;4986481;28;20269;-55
2022/06/03 02:48:52;;;;;;;2.90;2.60;;;;;;;;;;4991538;28;20233;-56
2022/06/03 02:51:37;;;;;;;3.10;2.90;;;;;;;;;;4989156;28;20195;-56
2022/06/03 02:54:15;;;;;;;2.80;2.60;;;;;;;;;;4992727;28;20240;-56
2022/06/03 02:56:47;;;;;;;3.10;2.80;;;;;;;;;;4989818;28;20656;-56
2022/06/03 02:59:18;;;;;;;2.90;2.70;;;;;;;;;;4993409;28;20192;-56
2022/06/03 03:02:03;;;;;;;6.33;3.30;;;;;;;;;;4989597;28;20647;-55
2022/06/03 03:04:41;;;;;;;3.57;3.27;;;;;;;;;;4991090;28;20229;-55
2022/06/03 03:07:13;;;;;;;3.00;2.80;;;;;;;;;;4990473;28;20213;-55
2022/06/03 03:09:40;;;;;;;5.13;3.00;;;;;;;;;;4994293;28;20645;-55
2022/06/03 03:12:24;;;;;;;3.17;2.97;;;;;;;;;;4993496;28;20679;-55
2022/06/03 03:15:09;;;;;;;3.63;3.20;;;;;;;;;;4990292;28;20245;-55
2022/06/03 03:18:07;;;;;;;3.70;3.30;;;;;;;;;;4992334;28;20248;-55
2022/06/03 03:20:43;;;;;;;3.50;3.20;;;;;;;;;;4972370;28;20214;-56
2022/06/03 03:23:16;;;;;;;3.10;2.90;;;;;;;;;;4990216;28;20541;-56
2022/06/03 03:25:48;;;;;;;2.73;2.40;;;;;;;;;;4988785;28;20243;-55
2022/06/03 03:28:23;;;;;;;3.37;2.57;;;;;;;;;;4987226;28;20593;-55
2022/06/03 03:31:13;;;;;;;2.90;2.70;;;;;;;;;;4988472;28;20272;-55
2022/06/03 03:33:58;;;;;;;2.90;2.70;;;;;;;;;;4993595;28;20228;-56
2022/06/03 03:36:33;;;;;;;2.90;2.70;;;;;;;;;;4987818;28;20821;-56
2022/06/03 03:39:13;;;;;;;3.13;2.47;;;;;;;;;;4992381;28;20217;-55
2022/06/03 03:41:48;;;;;;;2.80;2.60;;;;;;;;;;4990856;28;20530;-56
2022/06/03 03:44:31;;;;;;;2.90;2.70;;;;;;;;;;4989706;28;20755;-55
2022/06/03 03:47:09;;;;;;;3.17;2.90;;;;;;;;;;4996010;28;20194;-56
2022/06/03 03:49:54;;;;;;;2.73;2.53;;;;;;;;;;4989191;28;20245;-55
2022/06/03 03:52:23;;;;;;;2.93;2.73;;;;;;;;;;4991180;28;20194;-55
2022/06/03 03:54:55;;;;;;;3.17;2.87;;;;;;;;;;4980541;28;20312;-55
2022/06/03 03:57:21;;;;;;;3.00;2.70;;;;;;;;;;4969267;28;20208;-55
2022/06/03 04:00:10;;;;;;;3.00;2.80;;;;;;;;;;4983848;28;20187;-55
2022/06/03 04:02:44;;;;;;;3.03;2.80;;;;;;;;;;4987191;28;20528;-55
2022/06/03 04:05:30;;;;;;;3.93;3.20;;;;;;;;;;4993114;28;20691;-55
2022/06/03 04:08:02;;;;;;;3.33;3.10;;;;;;;;;;4989768;28;20190;-56
2022/06/03 04:10:47;;;;;;;3.00;2.80;;;;;;;;;;4984001;28;20269;-56
2022/06/03 04:13:20;;;;;;;3.00;2.80;;;;;;;;;;4989060;28;20213;-55
2022/06/03 04:16:04;;;;;;;2.70;2.50;;;;;;;;;;4987925;28;20244;-56
2022/06/03 04:18:49;;;;;;;3.20;2.90;;;;;;;;;;4986799;28;20186;-55
2022/06/03 04:21:34;;;;;;;3.30;3.00;;;;;;;;;;4986907;28;20718;-55
2022/06/03 04:24:07;;;;;;;3.30;3.03;;;;;;;;;;4987970;28;20322;-56
2022/06/03 04:26:36;;;;;;;3.07;2.87;;;;;;;;;;4985060;28;20204;-56
2022/06/03 04:29:36;;;;;;;2.80;2.60;;;;;;;;;;4990141;28;20257;-56
2022/06/03 04:32:04;;;;;;;3.20;3.00;;;;;;;;;;4977556;28;20188;-56
2022/06/03 04:34:49;;;;;;;3.20;3.00;;;;;;;;;;4979221;28;20221;-56
2022/06/03 04:37:34;;;;;;;3.07;2.87;;;;;;;;;;4968209;28;20186;-56
2022/06/03 04:40:03;;;;;;;2.90;2.70;;;;;;;;;;4987675;28;20549;-56
2022/06/03 04:42:48;;;;;;;2.90;2.60;;;;;;;;;;4987730;28;20186;-55
2022/06/03 04:45:20;;;;;;;3.23;2.93;;;;;;;;;;4991964;28;20189;-55
2022/06/03 04:47:46;;;;;;;2.70;2.50;;;;;;;;;;4992000;28;20182;-55
2022/06/03 04:50:18;;;;;;;2.80;2.60;;;;;;;;;;4990366;28;20190;-56
2022/06/03 04:53:10;;;;;;;2.83;2.63;;;;;;;;;;4996474;28;20190;-55
2022/06/03 04:55:55;;;;;;;2.87;2.67;;;;;;;;;;4985881;28;20204;-55
2022/06/03 04:58:40;;;;;;;2.77;2.57;;;;;;;;;;4984130;28;20212;-55
2022/06/03 05:01:17;;;;;;;2.73;2.53;;;;;;;;;;4983894;28;20197;-55
2022/06/03 05:04:02;;;;;;;2.40;2.30;;;;;;;;;;4984379;28;20237;-55
2022/06/03 05:06:29;;;;;;;2.80;2.60;;;;;;;;;;4987267;28;20202;-55
2022/06/03 05:09:13;;;;;;;3.53;2.87;;;;;;;;;;4985631;28;20204;-55
2022/06/03 05:11:58;;;;;;;2.73;2.53;;;;;;;;;;4974145;28;20807;-56
2022/06/03 05:14:42;;;;;;;3.00;2.80;;;;;;;;;;4982454;28;20279;-55
2022/06/03 05:17:20;;;;;;;2.40;2.20;;;;;;;;;;4984023;28;20217;-55
2022/06/03 05:19:59;;;;;;;3.70;3.40;;;;;;;;;;4983278;28;20411;-53
2022/06/03 05:22:44;;;;;;;3.77;3.47;;;;;;;;;;4991096;28;20798;-54
2022/06/03 05:25:18;;;;;;;4.20;3.80;;;;;;;;;;4993168;28;20261;-53
2022/06/03 05:27:57;;;;;;;3.70;3.37;;;;;;;;;;4981639;28;20217;-54
2022/06/03 05:30:42;;;;;;;3.67;3.33;;;;;;;;;;4974560;28;20268;-53
2022/06/03 05:33:26;;;;;;;4.57;4.20;;;;;;;;;;4974811;28;20209;-54
2022/06/03 05:35:58;;;;;;;3.80;3.50;;;;;;;;;;4974688;28;20189;-54
2022/06/03 05:38:34;;;;;;;4.37;3.97;;;;;;;;;;4980031;28;20197;-53
2022/06/03 05:41:03;;;;;;;4.37;3.93;;;;;;;;;;4965387;28;20446;-54
2022/06/03 05:43:32;;;;;;;6.33;4.37;;;;;;;;;;4973574;28;23456;-53
2022/06/03 05:45:58;;;;;;;5.00;3.53;;;;;;;;;;4975458;28;20206;-53
2022/06/03 05:48:34;;;;;;;3.70;3.40;;;;;;;;;;4990801;28;20190;-54
2022/06/03 05:51:13;;;;;;;5.67;3.60;;;;;;;;;;5002897;28;20185;-54
2022/06/03 05:53:44;;;;;;;4.30;3.77;;;;;;;;;;4996265;28;20588;-53
2022/06/03 05:56:33;;;;;;;6.83;3.80;;;;;;;;;;4978378;28;20276;-53
2022/06/03 05:59:03;;;;;;;3.70;3.50;;;;;;;;;;4970089;28;20281;-54
2022/06/03 06:01:39;;;;;;;3.67;3.40;;;;;;;;;;4991842;28;20637;-54
2022/06/03 06:04:16;;;;;;;3.60;3.40;;;;;;;;;;4991644;28;20237;-54
2022/06/03 06:07:00;;;;;;;5.40;3.40;;;;;;;;;;4998479;28;20192;-54
2022/06/03 06:09:45;;;;;;;12.97;4.67;;;;;;;;;;4975046;28;20557;-54
2022/06/03 06:12:20;;;;;;;6.57;3.80;;;;;;;;;;4988004;28;20205;-54
2022/06/03 06:14:52;;;;;;;3.87;3.57;;;;;;;;;;4987682;28;20209;-54
2022/06/03 06:17:34;;;;;;;5.40;3.00;;;;;;;;;;4992650;28;20189;-53
2022/06/03 06:20:27;;;;;;;4.73;3.53;;;;;;;;;;4973202;28;20720;-54
2022/06/03 06:22:53;;;;;;;4.53;3.83;;;;;;;;;;4961011;28;20209;-54
2022/06/03 06:25:21;;;;;;;8.90;3.03;;;;;;;;;;4998626;28;20193;-54
2022/06/03 06:28:04;;;;;;;12.73;4.40;;;;;;;;;;5002343;28;20267;-54
2022/06/03 06:30:48;;;;;;;5.57;3.13;;;;;;;;;;4987883;28;20194;-53
2022/06/03 06:33:17;;;;;;;12.33;4.20;;;;;;;;;;4972744;28;20318;-53
2022/06/03 06:36:16;;;;;;;4.33;2.80;;;;;;;;;;4976349;28;20185;-53
2022/06/03 06:38:57;;;;;;;3.13;2.90;;;;;;;;;;4959969;28;20690;-54
2022/06/03 06:41:23;;;;;;;3.60;3.30;;;;;;;;;;4990317;28;20240;-54
2022/06/03 06:43:56;;;;;;;3.30;3.00;;;;;;;;;;4993306;28;20190;-54
2022/06/03 06:46:35;;;;;;;4.30;3.20;;;;;;;;;;4995206;28;20252;-54
2022/06/03 06:49:16;;;;;;;3.40;2.80;;;;;;;;;;4981608;28;20235;-54
2022/06/03 06:51:52;;;;;;;3.13;2.93;;;;;;;;;;4991926;28;20191;-54
2022/06/03 06:54:32;;;;;;;7.77;2.70;;;;;;;;;;4993023;28;20209;-55
2022/06/03 06:57:03;;;;;;;2.73;2.53;;;;;;;;;;4994010;28;20765;-54
2022/06/03 06:59:39;;;;;;;3.43;2.70;;;;;;;;;;4991347;28;20300;-54
2022/06/03 07:02:11;;;;;;;4.60;2.93;;;;;;;;;;4996388;28;20182;-54
2022/06/03 07:04:41;;;;;;;4.20;3.17;;;;;;;;;;4996282;28;20640;-54
2022/06/03 07:07:10;;;;;;;5.17;3.27;;;;;;;;;;5001876;28;20182;-53
2022/06/03 07:09:46;;;;;;;64.30;8.30;;;;;;;;;;4992320;28;26368;-54
2022/06/03 07:12:16;;;;;;;30.47;5.50;;;;;;;;;;4997014;28;20200;-54
2022/06/03 07:15:00;;;;;;;4.90;2.60;;;;;;;;;;4992257;28;20260;-54
2022/06/03 07:20:32;;;;;;;2.45;2.25;;;;;;;;;;4990152;28;20610;-54
2022/06/03 07:23:03;;;;;;;2.42;2.22;;;;;;;;;;4994859;28;20714;-55
2022/06/03 07:25:30;;;;;;;4.00;2.35;;;;;;;;;;4992423;28;20197;-55
2022/06/03 07:27:59;;;;;;;31.45;4.93;;;;;;;;;;4993745;28;20212;-55
2022/06/03 07:30:25;;;;;;;4.97;3.05;;;;;;;;;;4988246;28;20674;-55
2022/06/03 07:33:02;;;;;;;46.00;6.70;;;;;;;;;;4990699;28;20196;-54
2022/06/03 07:35:32;;;;;;;3.60;2.20;;;;;;;;;;4996107;28;20680;-55
2022/06/03 07:38:01;;;;;;;5.07;2.10;;;;;;;;;;4999300;28;20197;-55
2022/06/03 07:40:35;;;;;;;2.83;2.20;;;;;;;;;;4991517;28;20248;-55
2022/06/03 07:43:06;;;;;;;2.45;2.15;;;;;;;;;;4992550;28;20256;-54
2022/06/03 07:45:37;;;;;;;9.98;2.25;;;;;;;;;;4987446;28;20228;-55
2022/06/03 07:48:16;;;;;;;2.95;2.50;;;;;;;;;;4994955;28;20213;-55
2022/06/03 07:51:05;;;;;;;3.67;2.50;;;;;;;;;;4993784;28;20185;-55
2022/06/03 07:53:50;;;;;;;3.00;2.80;;;;;;;;;;4989229;28;20268;-56
2022/06/03 07:56:26;;;;;;;3.17;2.33;;;;;;;;;;4988422;28;20205;-55
2022/06/03 07:58:55;;;;;;;6.45;2.30;;;;;;;;;;4990939;28;20682;-55
2022/06/03 08:01:21;;;;;;;7.60;2.75;;;;;;;;;;4991191;28;20201;-55
2022/06/03 08:03:47;;;;;;;6.60;2.40;;;;;;;;;;4981324;28;20234;-55
2022/06/03 08:06:14;;;;;;;2.40;2.10;;;;;;;;;;4978112;28;20178;-56
2022/06/03 08:11:27;;;;;;;2.97;2.42;;;;;;;;;;4990783;28;20603;-55
2022/06/03 08:13:54;;;;;;;2.97;2.40;;;;;;;;;;4990172;28;20263;-55
2022/06/03 08:16:29;;;;;;;2.88;2.40;;;;;;;;;;4986575;28;20186;-55
2022/06/03 08:18:56;;;;;;;6.22;2.80;;;;;;;;;;4990909;28;20718;-55
2022/06/03 08:21:24;;;;;;;3.20;3.00;;;;;;;;;;4988106;28;20178;-55
2022/06/03 08:23:50;;;;;;;2.85;2.65;;;;;;;;;;4987687;28;20194;-56
2022/06/03 08:26:16;;;;;;;3.47;3.17;;;;;;;;;;4977686;28;20224;-57
2022/06/03 08:28:47;;;;;;;6.63;3.38;;;;;;;;;;4989812;28;20224;-57
2022/06/03 08:31:13;;;;;;;3.10;2.80;;;;;;;;;;4996838;28;20189;-56
2022/06/03 08:33:42;;;;;;;3.38;3.17;;;;;;;;;;4990477;28;20217;-57
2022/06/03 08:36:08;;;;;;;3.60;2.80;;;;;;;;;;4992274;28;20185;-56
2022/06/03 08:38:45;;;;;;;3.07;2.80;;;;;;;;;;4992696;28;20198;-57
2022/06/03 08:41:33;;;;;;;3.33;3.00;;;;;;;;;;4992851;28;20190;-56
2022/06/03 08:44:11;;;;;;;4.55;3.15;;;;;;;;;;4994947;28;20194;-56
2022/06/03 08:46:52;;;;;;;2.70;2.50;;;;;;;;;;4985801;28;20183;-56
2022/06/03 08:49:19;;;;;;;4.00;2.80;;;;;;;;;;4978905;28;20647;-56
2022/06/03 08:51:46;;;;;;;2.90;2.70;;;;;;;;;;4991185;28;20194;-56
2022/06/03 08:54:19;;;;;;;3.08;2.78;;;;;;;;;;4979735;28;20209;-56
2022/06/03 08:56:45;;;;;;;3.22;2.55;;;;;;;;;;4980377;28;20193;-57
2022/06/03 08:59:29;;;;;;;3.17;2.70;;;;;;;;;;4979433;28;20190;-57
2022/06/03 09:02:04;;;;;;;21.65;4.70;;;;;;;;;;4978586;28;20324;-57
2022/06/03 09:04:39;;;;;;;12.63;3.70;;;;;;;;;;4993496;28;20710;-57
2022/06/03 09:07:05;;;;;;;3.78;2.90;;;;;;;;;;4985221;28;20185;-58
2022/06/03 09:09:41;;;;;;;3.67;3.08;;;;;;;;;;4979534;28;20698;-57
2022/06/03 09:12:09;;;;;;;2.95;2.60;;;;;;;;;;4987034;28;20221;-57
2022/06/03 09:14:35;;;;;;;3.08;2.72;;;;;;;;;;4981034;28;20222;-57
2022/06/03 09:17:27;;;;;;;2.35;2.15;;;;;;;;;;4989696;28;20824;-57
2022/06/03 09:19:54;;;;;;;3.60;2.13;;;;;;;;;;4987083;28;20277;-57
2022/06/03 09:22:21;;;;;;;2.28;1.98;;;;;;;;;;4985818;28;20189;-57
2022/06/03 09:24:47;;;;;;;2.92;2.28;;;;;;;;;;4986519;28;20277;-57
2022/06/03 09:27:16;;;;;;;2.10;1.80;;;;;;;;;;4993060;28;20215;-57
2022/06/03 09:29:44;;;;;;;2.45;2.03;;;;;;;;;;5000647;28;20182;-57
2022/06/03 09:32:10;;;;;;;2.58;2.00;;;;;;;;;;4989037;28;20228;-57
2022/06/03 09:34:41;;;;;;;3.97;2.60;;;;;;;;;;4991981;28;20237;-57
2022/06/03 09:37:07;;;;;;;10.82;2.53;;;;;;;;;;4989309;28;20183;-57
2022/06/03 09:39:33;;;;;;;6.43;2.47;;;;;;;;;;4997703;28;20194;-57
2022/06/03 09:41:59;;;;;;;2.30;1.90;;;;;;;;;;4994303;28;20252;-57
2022/06/03 09:44:26;;;;;;;2.75;1.63;;;;;;;;;;4992619;28;20614;-57
2022/06/03 09:47:02;;;;;;;2.60;1.70;;;;;;;;;;4989122;28;20187;-57
2022/06/03 09:49:29;;;;;;;2.20;1.70;;;;;;;;;;4988918;28;20177;-57
2022/06/03 09:52:02;;;;;;;1.67;1.40;;;;;;;;;;4976642;28;20217;-57
2022/06/03 09:54:29;;;;;;;2.22;1.38;;;;;;;;;;4982607;28;20220;-57
2022/06/03 09:56:57;;;;;;;1.60;1.50;;;;;;;;;;4962138;28;20309;-57
2022/06/03 09:59:23;;;;;;;1.60;1.50;;;;;;;;;;4984907;28;20227;-57
2022/06/03 10:01:49;;;;;;;3.00;1.70;;;;;;;;;;4999872;28;20363;-58
2022/06/03 10:04:15;;;;;;;2.58;1.50;;;;;;;;;;4988291;28;20241;-58
2022/06/03 10:06:46;;;;;;;3.47;1.73;;;;;;;;;;4993624;28;20280;-57
2022/06/03 10:12:49;;;;;;;6.07;1.50;;;;;;;;;;4994061;28;20601;-57
2022/06/03 10:18:00;;;;;;;2.55;1.50;;;;;;;;;;4992152;28;20196;-55
2022/06/03 10:20:26;;;;;;;1.85;1.38;;;;;;;;;;4992223;28;20609;-55
2022/06/03 10:22:52;;;;;;;2.70;1.52;;;;;;;;;;4985414;28;20182;-55
2022/06/03 10:25:19;;;;;;;2.55;1.58;;;;;;;;;;4986703;28;20772;-55
2022/06/03 10:27:45;;;;;;;1.70;1.60;;;;;;;;;;4988424;28;20606;-55
2022/06/03 10:30:11;;;;;;;1.88;1.75;;;;;;;;;;4986965;28;20573;-56
2022/06/03 10:32:37;;;;;;;2.90;1.65;;;;;;;;;;4984203;28;20229;-57
2022/06/03 10:35:31;;;;;;;3.13;1.90;;;;;;;;;;4986906;28;20716;-57
2022/06/03 10:37:58;;;;;;;1.80;1.70;;;;;;;;;;4987444;28;20225;-56
2022/06/03 10:40:26;;;;;;;2.65;1.90;;;;;;;;;;4989840;28;20184;-57
2022/06/03 10:42:54;;;;;;;11.95;2.33;;;;;;;;;;4993315;28;20281;-57
2022/06/03 10:45:25;;;;;;;6.20;2.10;;;;;;;;;;4985525;28;20273;-56
2022/06/03 10:47:51;;;;;;;4.22;1.85;;;;;;;;;;4980844;28;20179;-56
2022/06/03 10:50:29;;;;;;;3.63;1.80;;;;;;;;;;4981060;28;20186;-55
2022/06/03 11:01:31;;;;;;;1.67;1.40;;;;;;;;;;4985261;28;20319;-56
2022/06/03 11:03:57;;;;;;;2.47;1.60;;;;;;;;;;4979019;28;20221;-56
2022/06/03 11:06:24;;;;;;;3.90;1.60;;;;;;;;;;4983211;28;20197;-57
2022/06/03 11:08:58;;;;;;;6.75;2.22;;;;;;;;;;4993089;28;20186;-56
2022/06/03 11:11:44;;;;;;;6.35;2.15;;;;;;;;;;4994796;28;20224;-57
2022/06/03 11:14:23;;;;;;;5.22;2.03;;;;;;;;;;4995731;28;20271;-56
2022/06/03 11:16:50;;;;;;;4.88;2.13;;;;;;;;;;4994328;28;20173;-56
2022/06/03 11:19:19;;;;;;;5.10;1.77;;;;;;;;;;4991989;28;20192;-56
2022/06/03 11:21:46;;;;;;;8.55;2.38;;;;;;;;;;4993073;28;20577;-57
2022/06/03 11:24:11;;;;;;;7.47;1.83;;;;;;;;;;4993616;28;20194;-56
2022/06/03 11:26:42;;;;;;;7.97;1.90;;;;;;;;;;4996153;28;20232;-57
2022/06/03 11:29:09;;;;;;;12.75;2.45;;;;;;;;;;4995416;28;20182;-56
2022/06/03 11:31:37;;;;;;;10.30;2.35;;;;;;;;;;4997985;28;20177;-57
2022/06/03 11:34:05;;;;;;;9.55;2.08;;;;;;;;;;4992682;28;20618;-57
2022/06/03 11:36:49;;;;;;;11.52;2.75;;;;;;;;;;4996220;28;20268;-58
2022/06/03 11:39:20;;;;;;;5.15;2.80;;;;;;;;;;4999158;28;20261;-57
2022/06/03 11:42:06;;;;;;;19.08;3.30;;;;;;;;;;4997367;28;20201;-56
2022/06/03 11:44:37;;;;;;;10.23;2.83;;;;;;;;;;4993736;28;20206;-56
2022/06/03 11:47:29;;;;;;;8.02;2.50;;;;;;;;;;5001334;28;20610;-57
2022/06/03 11:49:55;;;;;;;12.30;2.40;;;;;;;;;;4973842;28;20209;-57
2022/06/03 11:52:21;;;;;;;7.60;2.25;;;;;;;;;;4994591;28;21317;-56
2022/06/03 11:54:47;;;;;;;4.28;2.33;;;;;;;;;;4991098;28;20221;-57
2022/06/03 11:57:13;;;;;;;12.65;3.60;;;;;;;;;;4995079;28;20182;-55
2022/06/03 11:59:41;;;;;;;9.30;2.35;;;;;;;;;;4997427;28;20216;-54
2022/06/03 12:02:11;;;;;;;8.20;2.60;;;;;;;;;;4994749;28;20301;-57
2022/06/03 12:04:50;;;;;;;9.18;2.20;;;;;;;;;;5005048;28;20309;-57
2022/06/03 12:07:35;;;;;;;12.20;2.30;;;;;;;;;;5004809;28;20659;-56
2022/06/03 12:10:24;;;;;;;3.97;2.10;;;;;;;;;;5001028;28;20193;-57
2022/06/03 12:13:26;;;;;;;6.63;2.00;;;;;;;;;;4994222;28;20209;-57
2022/06/03 12:15:56;;;;;;;9.93;2.38;;;;;;;;;;4997219;28;20585;-57
2022/06/03 12:18:42;;;;;;;7.53;2.35;;;;;;;;;;5000391;28;20812;-57
2022/06/03 12:21:14;;;;;;;4.82;2.20;;;;;;;;;;5005107;28;20616;-56
2022/06/03 12:23:42;;;;;;;2.60;1.90;;;;;;;;;;4995229;28;20240;-56
2022/06/03 12:26:08;;;;;;;2.70;2.00;;;;;;;;;;4995475;28;20232;-57
2022/06/03 12:28:37;;;;;;;2.70;1.90;;;;;;;;;;4999386;28;20691;-57
2022/06/03 12:31:02;;;;;;;3.75;2.03;;;;;;;;;;5001553;28;20190;-57
2022/06/03 12:33:29;;;;;;;3.33;2.00;;;;;;;;;;5000386;28;20209;-57
2022/06/03 12:35:56;;;;;;;2.45;1.80;;;;;;;;;;4997697;28;20273;-55
2022/06/03 12:38:23;;;;;;;5.50;2.20;;;;;;;;;;5000805;28;20534;-56
2022/06/03 12:40:53;;;;;;;4.90;2.60;;;;;;;;;;4998280;28;20232;-56
2022/06/03 12:43:38;;;;;;;2.35;1.92;;;;;;;;;;5004826;28;20208;-57
2022/06/03 12:46:08;;;;;;;2.92;2.22;;;;;;;;;;4997754;28;20600;-57
2022/06/03 12:48:35;;;;;;;5.22;2.00;;;;;;;;;;4999054;28;20193;-56
2022/06/03 12:51:19;;;;;;;2.67;2.10;;;;;;;;;;4999977;28;20240;-57
2022/06/03 12:53:46;;;;;;;2.33;2.13;;;;;;;;;;4997795;28;20217;-56
2022/06/03 12:56:13;;;;;;;2.08;1.90;;;;;;;;;;5002059;28;20197;-56
2022/06/03 12:58:39;;;;;;;4.18;2.20;;;;;;;;;;5006622;28;20501;-57
2022/06/03 13:01:05;;;;;;;2.25;1.98;;;;;;;;;;4995872;28;20186;-57
2022/06/03 13:03:34;;;;;;;2.90;2.13;;;;;;;;;;4998521;28;20190;-56
2022/06/03 13:06:05;;;;;;;3.58;1.98;;;;;;;;;;5000818;28;20178;-57
2022/06/03 13:08:34;;;;;;;2.30;2.10;;;;;;;;;;4992082;28;20199;-56
2022/06/03 13:11:09;;;;;;;2.60;2.20;;;;;;;;;;4998044;28;20244;-57
2022/06/03 13:13:38;;;;;;;4.90;2.20;;;;;;;;;;4995472;28;21106;-58
2022/06/03 13:16:16;;;;;;;2.70;2.20;;;;;;;;;;4998245;28;20711;-57
2022/06/03 13:18:43;;;;;;;4.13;2.20;;;;;;;;;;4999897;28;20185;-56
2022/06/03 13:21:09;;;;;;;2.33;1.85;;;;;;;;;;5003408;28;20178;-55
2022/06/03 13:23:36;;;;;;;2.20;2.00;;;;;;;;;;4998509;28;20202;-56
2022/06/03 13:26:25;;;;;;;2.42;1.88;;;;;;;;;;5004775;28;20182;-56
2022/06/03 13:28:51;;;;;;;2.05;1.85;;;;;;;;;;4993044;28;20226;-56
2022/06/03 13:31:41;;;;;;;5.05;2.00;;;;;;;;;;4999986;28;20276;-56
2022/06/03 13:34:10;;;;;;;3.13;1.70;;;;;;;;;;4991480;28;20216;-56
2022/06/03 13:36:36;;;;;;;1.80;1.70;;;;;;;;;;4998383;28;20248;-57
2022/06/03 13:39:02;;;;;;;1.70;1.60;;;;;;;;;;4998844;28;20189;-56
2022/06/03 13:44:36;;;;;;;3.10;1.75;;;;;;;;;;4996374;28;20244;-55
2022/06/03 13:47:04;;;;;;;3.75;1.58;;;;;;;;;;4999839;28;20185;-56
2022/06/03 13:49:30;;;;;;;2.40;1.75;;;;;;;;;;4997978;28;20485;-56
2022/06/03 13:51:58;;;;;;;1.90;1.63;;;;;;;;;;5004341;28;20292;-56
2022/06/03 13:54:25;;;;;;;2.80;1.70;;;;;;;;;;4997243;28;20246;-56
2022/06/03 13:56:56;;;;;;;3.20;2.00;;;;;;;;;;5003730;28;20190;-57
2022/06/03 13:59:21;;;;;;;2.17;1.92;;;;;;;;;;5002506;28;20186;-56
2022/06/03 14:01:52;;;;;;;2.72;1.95;;;;;;;;;;4999086;28;20654;-56
2022/06/03 14:04:20;;;;;;;3.55;1.85;;;;;;;;;;5002110;28;20237;-56
2022/06/03 14:06:53;;;;;;;2.42;2.22;;;;;;;;;;4997802;28;20190;-56
2022/06/03 14:09:19;;;;;;;2.22;2.10;;;;;;;;;;5003538;28;20189;-56
2022/06/03 14:11:47;;;;;;;2.58;2.22;;;;;;;;;;4995737;28;20192;-56
2022/06/03 14:14:15;;;;;;;6.47;2.40;;;;;;;;;;5000758;28;20213;-56
2022/06/03 14:16:44;;;;;;;3.15;2.28;;;;;;;;;;4997135;28;20188;-56
2022/06/03 14:19:10;;;;;;;4.95;2.08;;;;;;;;;;4998127;28;20193;-56
2022/06/03 14:21:39;;;;;;;2.40;1.90;;;;;;;;;;4998397;28;20189;-56
2022/06/03 14:24:07;;;;;;;2.58;2.28;;;;;;;;;;4996086;28;20204;-55
2022/06/03 14:26:45;;;;;;;2.85;2.38;;;;;;;;;;4995815;28;20193;-56
2022/06/03 14:29:15;;;;;;;3.17;2.05;;;;;;;;;;5002977;28;20189;-56
2022/06/03 14:31:49;;;;;;;2.00;1.90;;;;;;;;;;4996663;28;20217;-55
2022/06/03 14:34:25;;;;;;;2.20;1.80;;;;;;;;;;4998452;28;20214;-56
2022/06/03 14:36:51;;;;;;;2.78;2.15;;;;;;;;;;4999039;28;20213;-55
2022/06/03 14:39:22;;;;;;;4.57;2.20;;;;;;;;;;4995067;28;20182;-55
2022/06/03 14:41:50;;;;;;;2.10;2.00;;;;;;;;;;4994077;28;20237;-56
2022/06/03 14:44:17;;;;;;;2.00;1.90;;;;;;;;;;4997645;28;20538;-56
2022/06/03 14:46:49;;;;;;;2.28;2.13;;;;;;;;;;5001356;28;20251;-56
2022/06/03 14:49:16;;;;;;;3.03;2.00;;;;;;;;;;5000945;28;20236;-56
2022/06/03 14:51:49;;;;;;;3.05;2.17;;;;;;;;;;4999745;28;20194;-56
2022/06/03 14:54:16;;;;;;;2.00;1.90;;;;;;;;;;4995329;28;20222;-55
2022/06/03 14:56:43;;;;;;;2.53;2.22;;;;;;;;;;5003649;28;20836;-56
2022/06/03 14:59:24;;;;;;;3.47;2.20;;;;;;;;;;4998337;28;20186;-56
2022/06/03 15:01:51;;;;;;;3.92;2.10;;;;;;;;;;4993640;28;20178;-56
2022/06/03 15:04:22;;;;;;;3.22;2.10;;;;;;;;;;4999601;28;20329;-56
2022/06/03 15:06:50;;;;;;;2.20;2.08;;;;;;;;;;4998667;28;20181;-55
2022/06/03 15:09:25;;;;;;;2.60;2.00;;;;;;;;;;5002469;28;20643;-55
2022/06/03 15:11:52;;;;;;;4.30;2.20;;;;;;;;;;4996383;28;20240;-55
2022/06/03 15:14:19;;;;;;;2.17;1.98;;;;;;;;;;4996183;28;20246;-56
2022/06/03 15:17:05;;;;;;;2.05;1.92;;;;;;;;;;4992326;28;20691;-55
2022/06/03 15:19:34;;;;;;;3.42;1.90;;;;;;;;;;4995473;28;20739;-55
2022/06/03 15:22:00;;;;;;;2.35;2.15;;;;;;;;;;4995818;28;20225;-56
2022/06/03 15:24:26;;;;;;;2.20;1.98;;;;;;;;;;4998139;28;20189;-56
2022/06/03 15:26:52;;;;;;;2.17;2.08;;;;;;;;;;4994061;28;20663;-56
2022/06/03 15:29:21;;;;;;;2.38;2.17;;;;;;;;;;5000374;28;20557;-56
2022/06/03 15:31:48;;;;;;;4.63;2.30;;;;;;;;;;4994967;28;20678;-56
2022/06/03 15:34:14;;;;;;;2.60;2.10;;;;;;;;;;4996008;28;20220;-56
2022/06/03 15:36:41;;;;;;;3.47;2.10;;;;;;;;;;4995176;28;20181;-56
2022/06/03 15:39:37;;;;;;;3.75;2.22;;;;;;;;;;5000713;28;20175;-55
2022/06/03 15:42:09;;;;;;;2.40;2.20;;;;;;;;;;4982840;28;20654;-56
2022/06/03 15:44:42;;;;;;;2.38;2.17;;;;;;;;;;4994008;28;20918;-56